Time;durP1;ratioP1;P1;durP2;ratioP2;P2;SDS_P1;SDS_P2;PMS_P1;PMS_P2;Temp;Humidity;BMP_temperature;BMP_pressure;BME280_temperature;BME280_humidity;BME280_pressure;Samples;Min_cycle;Max_cycle;Signal;HPM_P1;HPM_P2
2023/04/23 00:01:40;;;;;;;0.10;0.10;;;8.50;99.90;;;;;;5098165;28;20040;-78
2023/04/23 00:04:08;;;;;;;0.68;0.68;;;8.50;99.90;;;;;;5110350;27;20095;-80
2023/04/23 00:06:34;;;;;;;0.10;0.10;;;8.50;99.90;;;;;;5100359;28;20437;-78
2023/04/23 00:09:00;;;;;;;0.30;0.30;;;8.40;99.90;;;;;;5083569;28;20066;-80
2023/04/23 00:11:27;;;;;;;0.40;0.40;;;8.50;99.90;;;;;;5101127;28;20067;-79
2023/04/23 00:13:52;;;;;;;0.10;0.10;;;8.50;99.90;;;;;;5103220;28;20598;-79
2023/04/23 00:16:19;;;;;;;0.10;0.10;;;8.50;99.90;;;;;;5103728;27;20056;-81
2023/04/23 00:18:46;;;;;;;0.10;0.10;;;8.50;99.90;;;;;;5107641;27;20402;-82
2023/04/23 00:21:12;;;;;;;0.10;0.10;;;8.50;99.90;;;;;;5085562;28;20052;-79
2023/04/23 00:23:38;;;;;;;0.10;0.10;;;8.50;99.90;;;;;;5102105;27;20594;-80
2023/04/23 00:26:04;;;;;;;0.10;0.10;;;8.50;99.90;;;;;;5101638;28;20036;-80
2023/04/23 00:28:30;;;;;;;0.10;0.10;;;8.50;99.90;;;;;;5102004;28;20083;-79
2023/04/23 00:30:56;;;;;;;0.13;0.13;;;8.50;99.90;;;;;;5101204;27;20031;-81
2023/04/23 00:33:22;;;;;;;0.10;0.10;;;8.50;99.90;;;;;;5092190;28;20052;-79
2023/04/23 00:35:47;;;;;;;0.63;0.63;;;8.50;99.90;;;;;;5101229;28;20096;-81
2023/04/23 00:38:13;;;;;;;0.30;0.30;;;8.50;99.90;;;;;;5100508;28;20059;-81
2023/04/23 00:40:39;;;;;;;0.10;0.10;;;8.40;99.90;;;;;;5102690;28;20030;-80
2023/04/23 00:43:06;;;;;;;0.10;0.10;;;8.40;99.90;;;;;;5101763;28;20066;-79
2023/04/23 00:45:32;;;;;;;0.10;0.10;;;8.40;99.90;;;;;;5101073;28;20027;-81
2023/04/23 00:47:58;;;;;;;0.10;0.10;;;8.40;99.90;;;;;;5100644;28;20042;-81
2023/04/23 00:50:24;;;;;;;0.10;0.10;;;8.30;99.90;;;;;;5102256;28;20273;-81
2023/04/23 00:52:50;;;;;;;0.38;0.38;;;8.40;99.90;;;;;;5100224;28;20031;-80
2023/04/23 00:55:16;;;;;;;0.52;0.52;;;8.40;99.90;;;;;;5100947;28;20034;-80
2023/04/23 00:57:41;;;;;;;0.10;0.10;;;8.50;99.90;;;;;;5098194;28;20023;-78
2023/04/23 01:00:08;;;;;;;0.10;0.10;;;8.50;99.90;;;;;;5097510;27;20244;-80
2023/04/23 01:02:37;;;;;;;0.10;0.10;;;8.60;99.90;;;;;;5098579;28;20072;-79
2023/04/23 01:05:04;;;;;;;0.38;0.38;;;8.60;99.90;;;;;;5100281;28;20020;-79
2023/04/23 01:07:33;;;;;;;0.20;0.20;;;8.60;99.90;;;;;;5100161;28;20032;-78
2023/04/23 01:09:59;;;;;;;0.10;0.10;;;8.70;99.90;;;;;;5100958;28;20028;-80
2023/04/23 01:12:26;;;;;;;0.10;0.10;;;8.70;99.90;;;;;;5083074;28;20027;-79
2023/04/23 01:14:51;;;;;;;0.10;0.10;;;8.80;99.90;;;;;;5100975;28;20027;-80
2023/04/23 01:17:17;;;;;;;0.10;0.10;;;8.90;99.90;;;;;;5081953;28;20487;-82
2023/04/23 01:19:43;;;;;;;0.20;0.20;;;9.00;99.90;;;;;;5092562;28;20031;-82
2023/04/23 01:22:13;;;;;;;0.30;0.30;;;9.00;99.90;;;;;;5101957;28;20069;-81
2023/04/23 01:24:41;;;;;;;0.10;0.10;;;9.10;99.90;;;;;;5080645;28;20028;-80
2023/04/23 01:27:07;;;;;;;0.30;0.30;;;9.10;99.90;;;;;;5083274;28;20127;-81
2023/04/23 01:29:33;;;;;;;0.40;0.40;;;9.10;99.90;;;;;;5099136;28;20057;-81
2023/04/23 01:31:59;;;;;;;0.10;0.10;;;9.10;99.90;;;;;;5101875;28;20052;-81
2023/04/23 01:34:25;;;;;;;0.10;0.10;;;9.10;99.90;;;;;;5100787;28;20061;-80
2023/04/23 01:36:51;;;;;;;0.10;0.10;;;9.30;99.90;;;;;;5096628;28;20089;-81
2023/04/23 01:39:17;;;;;;;4.65;1.45;;;9.40;99.90;;;;;;5101749;28;20028;-81
2023/04/23 01:41:43;;;;;;;0.10;0.10;;;9.40;99.90;;;;;;5101255;28;20799;-81
2023/04/23 01:44:09;;;;;;;0.15;0.15;;;9.30;99.90;;;;;;5101810;28;20024;-80
2023/04/23 01:46:35;;;;;;;0.10;0.10;;;9.30;99.90;;;;;;5100320;28;20046;-82
2023/04/23 01:49:01;;;;;;;0.10;0.10;;;9.20;99.90;;;;;;5101376;28;20290;-80
2023/04/23 01:51:28;;;;;;;0.13;0.13;;;9.10;99.90;;;;;;5101607;28;20055;-80
2023/04/23 01:53:54;;;;;;;;;;;9.00;99.90;;;;;;5100788;28;20487;-80
2023/04/23 01:56:24;;;;;;;0.20;0.20;;;8.90;99.90;;;;;;5092078;28;19915;-79
2023/04/23 01:58:50;;;;;;;0.30;0.30;;;8.80;99.90;;;;;;5097919;28;20032;-78
2023/04/23 02:01:16;;;;;;;0.10;0.10;;;8.70;99.90;;;;;;5099482;28;20020;-78
2023/04/23 02:03:42;;;;;;;0.10;0.10;;;8.80;99.90;;;;;;5100726;28;20030;-80
2023/04/23 02:06:08;;;;;;;0.10;0.10;;;8.70;99.90;;;;;;5100601;28;20019;-79
2023/04/23 02:08:34;;;;;;;0.30;0.30;;;8.70;99.90;;;;;;5102185;28;20108;-81
2023/04/23 02:11:00;;;;;;;0.10;0.10;;;8.70;99.90;;;;;;5105532;28;20505;-79
2023/04/23 02:13:26;;;;;;;1.20;0.68;;;8.80;99.90;;;;;;5105624;28;20108;-82
2023/04/23 02:15:51;;;;;;;0.30;0.30;;;8.70;99.90;;;;;;5105250;27;20722;-81
2023/04/23 02:18:17;;;;;;;0.50;0.50;;;8.50;99.90;;;;;;5103418;28;20019;-80
2023/04/23 02:20:43;;;;;;;0.10;0.10;;;8.50;99.90;;;;;;5101137;27;20028;-79
2023/04/23 02:23:09;;;;;;;0.22;0.22;;;8.50;99.90;;;;;;5104409;28;20031;-77
2023/04/23 02:25:37;;;;;;;0.10;0.10;;;8.40;99.90;;;;;;5104938;28;20553;-79
2023/04/23 02:28:05;;;;;;;0.10;0.10;;;8.30;99.90;;;;;;5104768;28;20092;-82
2023/04/23 02:30:34;;;;;;;0.10;0.10;;;8.20;99.90;;;;;;5105833;27;20024;-82
2023/04/23 02:33:00;;;;;;;0.10;0.10;;;8.10;99.90;;;;;;5104362;28;20059;-80
2023/04/23 02:35:25;;;;;;;0.10;0.10;;;8.10;99.90;;;;;;5102530;28;20878;-81
2023/04/23 02:37:53;;;;;;;0.25;0.25;;;8.00;99.90;;;;;;5103054;27;20088;-81
2023/04/23 02:40:22;;;;;;;0.15;0.15;;;8.00;99.90;;;;;;5104816;28;20027;-82
2023/04/23 02:42:48;;;;;;;0.10;0.10;;;8.00;99.90;;;;;;5101191;28;20016;-83
2023/04/23 02:45:14;;;;;;;0.17;0.17;;;7.90;99.90;;;;;;5104329;28;20020;-81
2023/04/23 02:47:40;;;;;;;0.38;0.32;;;7.90;99.90;;;;;;5104241;28;20094;-80
2023/04/23 02:50:06;;;;;;;0.38;0.38;;;7.80;99.90;;;;;;5085680;28;20031;-81
2023/04/23 02:52:32;;;;;;;0.10;0.10;;;7.80;99.90;;;;;;5104878;27;20042;-81
2023/04/23 02:55:00;;;;;;;0.20;0.20;;;7.90;99.90;;;;;;5104623;28;20035;-83
2023/04/23 02:57:27;;;;;;;0.10;0.10;;;7.90;99.90;;;;;;5104065;28;20032;-80
2023/04/23 02:59:53;;;;;;;0.10;0.10;;;7.90;99.90;;;;;;5102704;28;20015;-80
2023/04/23 03:02:18;;;;;;;0.20;0.20;;;7.90;99.90;;;;;;5102790;28;20042;-81
2023/04/23 03:04:45;;;;;;;0.38;0.38;;;7.80;99.90;;;;;;5102810;28;20032;-81
2023/04/23 03:07:12;;;;;;;0.10;0.10;;;7.80;99.90;;;;;;5104509;28;20118;-80
2023/04/23 03:09:38;;;;;;;0.10;0.10;;;7.70;99.90;;;;;;5102929;28;20549;-82
2023/04/23 03:12:04;;;;;;;0.13;0.13;;;7.80;99.90;;;;;;5103683;28;20023;-78
2023/04/23 03:14:29;;;;;;;0.20;0.20;;;7.80;99.90;;;;;;5103133;28;20184;-80
2023/04/23 03:16:55;;;;;;;0.20;0.20;;;7.80;99.90;;;;;;5103542;28;20038;-78
2023/04/23 03:19:20;;;;;;;0.10;0.10;;;7.90;99.90;;;;;;5099212;28;20185;-79
2023/04/23 03:21:46;;;;;;;0.10;0.10;;;7.90;99.90;;;;;;5103593;28;20016;-79
2023/04/23 03:24:13;;;;;;;0.10;0.10;;;8.00;99.90;;;;;;5101079;28;20032;-79
2023/04/23 03:26:39;;;;;;;0.10;0.10;;;8.10;99.90;;;;;;5104077;28;20132;-80
2023/04/23 03:29:05;;;;;;;0.25;0.25;;;8.20;99.90;;;;;;5102898;28;20450;-79
2023/04/23 03:31:31;;;;;;;0.15;0.15;;;8.10;99.90;;;;;;5104784;27;20051;-79
2023/04/23 03:33:57;;;;;;;0.20;0.20;;;8.10;99.90;;;;;;5102113;28;20107;-80
2023/04/23 03:36:22;;;;;;;0.30;0.30;;;8.10;99.90;;;;;;5102912;28;20179;-80
2023/04/23 03:38:48;;;;;;;0.10;0.10;;;8.20;99.90;;;;;;5102493;28;20501;-79
2023/04/23 03:41:14;;;;;;;0.43;0.38;;;8.20;99.90;;;;;;5103090;28;20049;-80
2023/04/23 03:43:40;;;;;;;1.77;0.98;;;8.30;99.90;;;;;;5103448;28;20023;-78
2023/04/23 03:46:05;;;;;;;0.20;0.20;;;8.20;99.90;;;;;;5102907;28;20483;-78
2023/04/23 03:48:31;;;;;;;0.20;0.20;;;8.30;99.90;;;;;;5103415;28;20023;-80
2023/04/23 03:50:57;;;;;;;0.57;0.57;;;8.30;99.90;;;;;;5102879;28;20161;-79
2023/04/23 03:53:23;;;;;;;0.10;0.10;;;8.40;99.90;;;;;;5100013;28;20024;-79
2023/04/23 03:55:48;;;;;;;0.40;0.40;;;8.40;99.90;;;;;;5102804;28;20047;-80
2023/04/23 03:58:14;;;;;;;0.10;0.10;;;8.30;99.90;;;;;;5102194;27;20024;-80
2023/04/23 04:00:40;;;;;;;0.15;0.15;;;8.30;99.90;;;;;;5101838;28;20138;-79
2023/04/23 04:03:07;;;;;;;0.20;0.20;;;8.30;99.90;;;;;;5100079;28;20499;-79
2023/04/23 04:05:33;;;;;;;0.10;0.10;;;8.30;99.90;;;;;;5102877;28;20024;-80
2023/04/23 04:08:00;;;;;;;0.30;0.30;;;8.40;99.90;;;;;;5102325;28;20047;-81
2023/04/23 04:10:26;;;;;;;0.55;0.47;;;8.40;99.90;;;;;;5101087;28;20108;-81
2023/04/23 04:12:52;;;;;;;0.10;0.10;;;8.20;99.90;;;;;;5102080;28;20027;-81
2023/04/23 04:15:19;;;;;;;0.10;0.10;;;8.20;99.90;;;;;;5103159;28;20034;-82
2023/04/23 04:17:45;;;;;;;0.10;0.10;;;8.10;99.90;;;;;;5102300;28;20019;-81
2023/04/23 04:20:11;;;;;;;0.10;0.10;;;8.00;99.90;;;;;;5103211;28;20081;-81
2023/04/23 04:22:37;;;;;;;0.10;0.10;;;8.00;99.90;;;;;;5102006;28;20024;-81
2023/04/23 04:25:04;;;;;;;0.20;0.20;;;8.00;99.90;;;;;;5102911;28;20742;-81
2023/04/23 04:27:32;;;;;;;0.10;0.10;;;8.00;99.90;;;;;;5103050;28;20554;-78
2023/04/23 04:30:00;;;;;;;0.55;0.55;;;8.10;99.90;;;;;;5102617;27;20037;-79
2023/04/23 04:32:26;;;;;;;0.10;0.10;;;8.10;99.90;;;;;;5101249;27;20047;-79
2023/04/23 04:34:52;;;;;;;1.55;1.42;;;8.10;99.90;;;;;;5100528;28;20027;-78
2023/04/23 04:37:19;;;;;;;0.10;0.10;;;8.10;99.90;;;;;;5101492;28;20051;-81
2023/04/23 04:39:45;;;;;;;0.10;0.10;;;8.10;99.90;;;;;;5101528;28;20132;-79
2023/04/23 04:42:11;;;;;;;0.20;0.20;;;8.10;99.90;;;;;;5098212;28;20055;-80
2023/04/23 04:44:37;;;;;;;0.10;0.10;;;7.90;99.90;;;;;;5098513;28;20023;-84
2023/04/23 04:47:03;;;;;;;0.10;0.10;;;7.90;99.90;;;;;;5097040;28;20859;-81
2023/04/23 04:49:29;;;;;;;0.10;0.10;;;7.90;99.90;;;;;;5097170;28;20105;-82
2023/04/23 04:51:55;;;;;;;0.17;0.17;;;7.80;99.90;;;;;;5100368;28;20847;-81
2023/04/23 04:54:20;;;;;;;0.10;0.10;;;7.80;99.90;;;;;;5095625;28;20031;-77
2023/04/23 04:56:46;;;;;;;0.10;0.10;;;7.70;99.90;;;;;;5099206;28;20510;-79
2023/04/23 04:59:12;;;;;;;0.10;0.10;;;7.70;99.90;;;;;;5100734;28;20096;-78
2023/04/23 05:01:38;;;;;;;0.10;0.10;;;7.70;99.90;;;;;;5100796;28;20036;-78
2023/04/23 05:04:03;;;;;;;0.17;0.17;;;7.80;99.90;;;;;;5099560;28;20118;-79
2023/04/23 05:06:31;;;;;;;0.10;0.10;;;8.10;99.90;;;;;;5099930;28;20825;-80
2023/04/23 05:08:56;;;;;;;0.70;0.45;;;8.40;99.90;;;;;;5100924;28;20055;-80
2023/04/23 05:11:22;;;;;;;0.10;0.10;;;8.80;99.90;;;;;;5095592;28;20040;-79
2023/04/23 05:13:48;;;;;;;0.15;0.15;;;9.40;99.90;;;;;;5101499;28;20034;-81
2023/04/23 05:16:14;;;;;;;0.10;0.10;;;9.30;99.90;;;;;;5090057;28;20113;-80
2023/04/23 05:18:41;;;;;;;0.10;0.10;;;9.00;99.90;;;;;;5101750;28;20038;-82
2023/04/23 05:21:06;;;;;;;0.10;0.10;;;8.90;99.90;;;;;;5100965;28;20035;-80
2023/04/23 05:23:33;;;;;;;0.45;0.28;;;8.90;99.90;;;;;;5102411;28;20031;-79
2023/04/23 05:25:58;;;;;;;0.10;0.10;;;9.00;99.90;;;;;;5099817;28;20035;-82
2023/04/23 05:28:24;;;;;;;0.10;0.10;;;9.00;99.90;;;;;;5096752;28;20031;-82
2023/04/23 05:30:51;;;;;;;1.75;0.73;;;8.90;99.90;;;;;;5100814;28;20028;-80
2023/04/23 05:33:17;;;;;;;0.10;0.10;;;8.80;99.90;;;;;;5100809;28;20047;-80
2023/04/23 05:35:42;;;;;;;0.10;0.10;;;8.70;99.90;;;;;;5100514;28;20415;-80
2023/04/23 05:38:09;;;;;;;0.10;0.10;;;8.80;99.90;;;;;;5094798;28;20038;-80
2023/04/23 05:40:34;;;;;;;0.25;0.25;;;8.90;99.90;;;;;;5098881;28;20464;-79
2023/04/23 05:43:01;;;;;;;0.17;0.17;;;9.10;99.90;;;;;;5104173;28;20035;-78
2023/04/23 05:45:27;;;;;;;0.10;0.10;;;9.10;99.90;;;;;;5104202;28;20084;-80
2023/04/23 05:47:52;;;;;;;0.28;0.28;;;8.90;99.90;;;;;;5102808;27;20036;-79
2023/04/23 05:50:20;;;;;;;0.10;0.10;;;8.90;99.90;;;;;;5105265;28;20024;-80
2023/04/23 05:52:45;;;;;;;0.52;0.52;;;9.10;99.90;;;;;;5086355;28;20406;-79
2023/04/23 05:55:11;;;;;;;0.20;0.20;;;9.30;99.90;;;;;;5105200;28;20028;-79
2023/04/23 05:57:37;;;;;;;0.10;0.10;;;9.30;99.90;;;;;;5099951;28;20403;-82
2023/04/23 06:00:05;;;;;;;0.10;0.10;;;9.10;99.90;;;;;;5104355;28;20028;-82
2023/04/23 06:02:32;;;;;;;;;;;9.30;99.90;;;;;;5104555;28;20076;-79
2023/04/23 06:04:58;;;;;;;0.52;0.52;;;9.60;99.90;;;;;;5105032;27;20111;-78
2023/04/23 06:07:24;;;;;;;0.32;0.32;;;9.70;99.90;;;;;;5099588;28;20039;-79
2023/04/23 06:09:50;;;;;;;0.40;0.40;;;9.80;99.90;;;;;;5092235;28;20101;-79
2023/04/23 06:12:15;;;;;;;0.10;0.10;;;9.90;99.90;;;;;;5105318;28;20038;-79
2023/04/23 06:14:41;;;;;;;0.10;0.10;;;10.00;99.90;;;;;;5104891;28;20023;-79
2023/04/23 06:17:07;;;;;;;0.10;0.10;;;10.10;99.90;;;;;;5090574;28;20039;-79
2023/04/23 06:19:32;;;;;;;0.10;0.10;;;10.20;99.90;;;;;;5097561;28;20027;-79
2023/04/23 06:21:58;;;;;;;0.10;0.10;;;10.40;99.90;;;;;;5098507;28;20093;-80
2023/04/23 06:24:24;;;;;;;0.32;0.32;;;10.50;99.90;;;;;;5100905;28;20518;-79
2023/04/23 06:26:49;;;;;;;0.20;0.20;;;10.60;99.90;;;;;;5095984;27;20043;-80
2023/04/23 06:29:15;;;;;;;0.10;0.10;;;10.60;99.90;;;;;;5098169;27;20438;-81
2023/04/23 06:31:41;;;;;;;0.10;0.10;;;10.70;99.90;;;;;;5096611;28;20997;-82
2023/04/23 06:34:07;;;;;;;0.10;0.10;;;10.70;99.90;;;;;;5085069;28;20027;-81
2023/04/23 06:36:32;;;;;;;0.00;0.00;;;10.70;99.90;;;;;;5084658;27;20085;-82
2023/04/23 06:38:58;;;;;;;0.10;0.10;;;10.50;99.90;;;;;;5105362;27;20073;-82
2023/04/23 06:41:24;;;;;;;0.10;0.10;;;10.50;99.90;;;;;;5092067;28;20099;-82
2023/04/23 06:43:50;;;;;;;0.10;0.10;;;10.50;99.90;;;;;;5086516;28;20435;-81
2023/04/23 06:46:15;;;;;;;0.10;0.10;;;10.60;99.90;;;;;;5098614;28;20038;-81
2023/04/23 06:48:41;;;;;;;0.10;0.10;;;10.70;99.90;;;;;;5107964;27;20444;-80
2023/04/23 06:51:07;;;;;;;0.10;0.10;;;10.90;99.90;;;;;;5091964;28;20027;-80
2023/04/23 06:53:33;;;;;;;0.10;0.10;;;11.00;99.90;;;;;;5116374;27;20638;-80
2023/04/23 06:55:58;;;;;;;0.20;0.20;;;11.00;99.90;;;;;;5099210;28;20598;-80
2023/04/23 06:58:30;;;;;;;0.10;0.10;;;11.10;99.90;;;;;;5104222;28;20054;-80
2023/04/23 07:00:59;;;;;;;0.10;0.10;;;11.10;99.90;;;;;;5097841;27;20015;-80
2023/04/23 07:03:26;;;;;;;0.10;0.10;;;11.20;99.90;;;;;;5093152;28;20062;-80
2023/04/23 07:05:52;;;;;;;0.00;0.00;;;11.10;99.90;;;;;;5092883;28;20032;-81
2023/04/23 07:08:19;;;;;;;0.17;0.17;;;10.90;99.90;;;;;;5102313;28;20847;-80
2023/04/23 07:10:45;;;;;;;0.52;0.52;;;10.90;99.90;;;;;;5098291;28;20852;-80
2023/04/23 07:13:11;;;;;;;0.10;0.10;;;10.80;99.90;;;;;;5103461;27;20043;-81
2023/04/23 07:15:37;;;;;;;0.20;0.20;;;10.90;99.90;;;;;;5100261;28;20043;-83
2023/04/23 07:18:03;;;;;;;6.75;6.22;;;10.80;99.90;;;;;;5102907;28;20088;-83
2023/04/23 07:20:29;;;;;;;2.17;1.98;;;10.80;99.90;;;;;;5099170;28;20031;-83
2023/04/23 07:22:55;;;;;;;0.55;0.55;;;11.10;99.90;;;;;;5100018;28;20852;-83
2023/04/23 07:25:21;;;;;;;1.17;1.13;;;11.30;99.90;;;;;;5093679;28;20024;-82
2023/04/23 07:27:47;;;;;;;0.30;0.30;;;11.50;99.90;;;;;;5091778;28;20032;-83
2023/04/23 07:30:13;;;;;;;0.38;0.30;;;11.40;99.90;;;;;;5099671;27;20266;-84
2023/04/23 07:32:38;;;;;;;0.95;0.93;;;11.30;99.90;;;;;;5098819;28;20059;-83
2023/04/23 07:35:05;;;;;;;0.10;0.10;;;11.30;99.90;;;;;;5094731;28;20020;-83
2023/04/23 07:37:31;;;;;;;0.10;0.10;;;11.30;99.90;;;;;;5076181;28;20498;-83
2023/04/23 07:39:56;;;;;;;0.10;0.10;;;11.50;99.90;;;;;;5095639;28;20039;-82
2023/04/23 07:42:22;;;;;;;0.20;0.20;;;12.10;99.90;;;;;;5095470;28;20079;-80
2023/04/23 07:44:48;;;;;;;0.30;0.30;;;12.20;99.90;;;;;;5095896;28;20035;-80
2023/04/23 07:47:13;;;;;;;0.20;0.20;;;12.20;99.90;;;;;;5093236;28;20073;-81
2023/04/23 07:49:39;;;;;;;0.20;0.20;;;12.00;99.90;;;;;;5093585;27;22334;-81
2023/04/23 07:52:05;;;;;;;0.10;0.10;;;11.90;99.90;;;;;;5098573;28;20020;-80
2023/04/23 07:54:30;;;;;;;0.55;0.55;;;11.80;99.90;;;;;;5098483;28;20023;-80
2023/04/23 07:56:56;;;;;;;0.20;0.20;;;12.10;99.90;;;;;;5092551;28;20112;-78
2023/04/23 07:59:22;;;;;;;0.60;0.60;;;12.50;99.90;;;;;;5096831;28;20027;-78
2023/04/23 08:01:48;;;;;;;0.00;0.00;;;12.90;99.90;;;;;;5101116;27;20849;-78
2023/04/23 08:04:13;;;;;;;0.50;0.43;;;12.80;99.90;;;;;;5103882;27;20103;-79
2023/04/23 08:06:40;;;;;;;0.00;0.00;;;12.90;99.90;;;;;;5097617;28;20059;-78
2023/04/23 08:09:06;;;;;;;0.60;0.57;;;13.00;99.90;;;;;;5106958;27;20500;-78
2023/04/23 08:11:32;;;;;;;0.97;0.93;;;12.90;99.90;;;;;;5100272;28;20028;-78
2023/04/23 08:13:58;;;;;;;0.28;0.28;;;12.60;99.90;;;;;;5096529;28;20032;-78
2023/04/23 08:16:24;;;;;;;0.00;0.00;;;12.60;99.90;;;;;;5105466;27;20051;-81
2023/04/23 08:18:50;;;;;;;0.10;0.10;;;12.70;99.90;;;;;;5100935;28;20062;-82
2023/04/23 08:21:15;;;;;;;3.23;2.90;;;13.10;99.90;;;;;;5092204;28;20032;-81
2023/04/23 08:23:41;;;;;;;3.40;2.97;;;13.20;99.90;;;;;;5096506;28;20064;-83
2023/04/23 08:26:07;;;;;;;9.50;8.38;;;13.20;99.90;;;;;;5104711;27;20034;-80
2023/04/23 08:28:33;;;;;;;0.22;0.22;;;13.20;99.90;;;;;;5095335;27;20028;-79
2023/04/23 08:30:59;;;;;;;5.93;3.00;;;13.00;99.90;;;;;;5100346;27;20432;-80
2023/04/23 08:33:24;;;;;;;6.70;6.13;;;13.00;99.90;;;;;;5104429;27;20706;-81
2023/04/23 08:35:50;;;;;;;13.50;8.47;;;12.80;99.90;;;;;;5097799;28;20035;-80
2023/04/23 08:38:16;;;;;;;5.75;5.18;;;13.10;99.90;;;;;;5101671;28;20030;-81
2023/04/23 08:40:44;;;;;;;9.23;5.20;;;13.30;99.90;;;;;;5096295;28;20043;-81
2023/04/23 08:43:15;;;;;;;1.35;1.27;;;13.30;99.90;;;;;;5099118;28;20596;-81
2023/04/23 08:45:45;;;;;;;3.67;3.45;;;14.90;99.90;;;;;;5102386;27;20039;-80
2023/04/23 08:48:11;;;;;;;0.50;0.50;;;14.90;99.90;;;;;;5098902;28;20055;-80
2023/04/23 08:50:41;;;;;;;1.20;1.13;;;15.10;99.90;;;;;;5099483;28;20027;-80
2023/04/23 08:53:07;;;;;;;0.68;0.68;;;14.60;99.90;;;;;;5100544;28;20027;-80
2023/04/23 08:55:34;;;;;;;1.92;1.83;;;14.00;99.90;;;;;;5096964;28;20031;-80
2023/04/23 08:58:01;;;;;;;0.30;0.30;;;15.80;99.90;;;;;;5097626;28;20468;-81
2023/04/23 09:00:28;;;;;;;0.28;0.28;;;15.30;99.90;;;;;;5097775;28;20106;-81
2023/04/23 09:02:54;;;;;;;0.08;0.08;;;15.80;99.90;;;;;;5096938;28;20038;-81
2023/04/23 09:05:20;;;;;;;0.20;0.15;;;15.50;99.90;;;;;;5097406;28;20023;-80
2023/04/23 09:07:46;;;;;;;0.00;0.00;;;14.60;99.90;;;;;;5095623;28;20138;-81
2023/04/23 09:10:13;;;;;;;0.67;0.67;;;14.50;99.90;;;;;;5088458;28;20036;-80
2023/04/23 09:12:40;;;;;;;;;;;15.10;99.90;;;;;;5099026;28;20032;-80
2023/04/23 09:15:10;;;;;;;0.08;0.08;;;14.80;99.90;;;;;;5081707;28;20010;-80
2023/04/23 09:17:40;;;;;;;0.10;0.10;;;14.70;99.90;;;;;;5074779;28;20154;-81
2023/04/23 09:20:10;;;;;;;0.00;0.00;;;14.60;99.90;;;;;;5100061;28;20019;-80
2023/04/23 09:22:51;;;;;;;0.15;0.15;;;14.40;99.90;;;;;;5103543;27;20690;-81
2023/04/23 09:25:21;;;;;;;0.13;0.13;;;14.30;99.90;;;;;;5101633;28;20019;-80
2023/04/23 09:27:49;;;;;;;0.30;0.30;;;14.20;99.90;;;;;;5094232;28;20510;-82
2023/04/23 09:30:15;;;;;;;0.20;0.20;;;14.30;99.90;;;;;;5096342;28;20400;-80
2023/04/23 09:32:44;;;;;;;0.10;0.10;;;13.80;99.90;;;;;;5099210;28;20578;-80
2023/04/23 09:35:14;;;;;;;0.10;0.10;;;13.70;99.90;;;;;;5108653;27;20098;-80
2023/04/23 09:37:47;;;;;;;1.45;0.55;;;14.00;99.90;;;;;;5104083;27;20392;-80
2023/04/23 09:40:25;;;;;;;0.00;0.00;;;14.10;99.90;;;;;;5095763;28;20746;-80
2023/04/23 09:42:53;;;;;;;0.00;0.00;;;14.10;99.90;;;;;;5098671;27;20107;-79
2023/04/23 09:45:18;;;;;;;2.08;1.67;;;14.40;99.90;;;;;;5081463;28;20101;-80
2023/04/23 09:47:50;;;;;;;0.10;0.10;;;14.20;99.90;;;;;;5099843;28;20039;-79
2023/04/23 09:50:16;;;;;;;0.10;0.10;;;14.00;99.90;;;;;;5107002;27;20295;-81
2023/04/23 09:52:42;;;;;;;0.33;0.33;;;14.30;99.90;;;;;;5097915;28;20845;-81
2023/04/23 09:55:08;;;;;;;0.00;0.00;;;14.60;99.90;;;;;;5100495;28;20027;-80
2023/04/23 10:01:21;;;;;;;0.00;0.00;;;15.20;99.90;;;;;;5068697;28;20109;-81
2023/04/23 10:12:22;;;;;;;0.45;0.35;;;15.30;99.90;;;;;;5066706;28;20085;-80
2023/04/23 10:23:24;;;;;;;0.40;0.40;;;14.50;99.90;;;;;;5076996;28;20035;-80
2023/04/23 10:33:55;;;;;;;0.50;0.47;;;13.90;99.90;;;;;;5065319;28;20067;-82
2023/04/23 10:36:24;;;;;;;2.28;0.35;;;13.40;99.90;;;;;;5074061;28;20032;-79
2023/04/23 10:38:50;;;;;;;0.00;0.00;;;13.20;99.90;;;;;;5080614;28;20024;-82
2023/04/23 10:41:20;;;;;;;0.33;0.33;;;13.00;99.90;;;;;;5088607;28;20027;-81
2023/04/23 10:43:46;;;;;;;0.30;0.30;;;13.10;99.90;;;;;;5088490;28;20377;-85
2023/04/23 10:46:31;;;;;;;0.10;0.10;;;12.90;99.90;;;;;;5088473;28;20431;-82
2023/04/23 10:49:13;;;;;;;0.10;0.10;;;12.50;99.90;;;;;;5077225;28;20495;-83
2023/04/23 10:51:41;;;;;;;0.00;0.00;;;12.20;99.90;;;;;;5087722;28;20376;-82
2023/04/23 10:54:09;;;;;;;0.10;0.10;;;12.00;99.90;;;;;;5081320;28;20772;-82
2023/04/23 10:56:37;;;;;;;0.10;0.10;;;11.90;99.90;;;;;;5075746;28;20086;-84
2023/04/23 10:59:17;;;;;;;0.03;0.03;;;12.00;99.90;;;;;;5080452;28;20108;-81
2023/04/23 11:01:51;;;;;;;0.10;0.10;;;11.80;99.90;;;;;;5083509;28;20031;-83
2023/04/23 11:04:24;;;;;;;2.85;1.58;;;12.00;99.90;;;;;;5079876;28;20052;-83
2023/04/23 11:07:03;;;;;;;0.10;0.10;;;12.10;99.90;;;;;;5082529;28;20065;-84
2023/04/23 11:09:29;;;;;;;0.20;0.20;;;11.90;99.90;;;;;;5076666;28;20036;-85
2023/04/23 11:11:56;;;;;;;0.10;0.10;;;11.90;99.90;;;;;;5082405;28;20688;-82
2023/04/23 11:14:36;;;;;;;0.28;0.25;;;11.90;99.90;;;;;;5089926;28;20028;-83
2023/04/23 11:17:04;;;;;;;1.75;0.35;;;11.80;99.90;;;;;;5089379;28;20569;-84
2023/04/23 11:19:30;;;;;;;0.20;0.20;;;11.90;99.90;;;;;;5078125;28;20486;-85
2023/04/23 11:22:13;;;;;;;0.10;0.10;;;11.80;99.90;;;;;;5083449;28;20032;-84
2023/04/23 11:24:41;;;;;;;0.10;0.10;;;11.90;99.90;;;;;;5092120;28;20043;-83
2023/04/23 11:27:09;;;;;;;0.30;0.30;;;11.80;99.90;;;;;;5081228;28;20111;-82
2023/04/23 11:29:39;;;;;;;0.00;0.00;;;11.70;99.90;;;;;;5073870;28;20032;-84
2023/04/23 11:32:09;;;;;;;0.15;0.15;;;11.70;99.90;;;;;;5088560;28;20101;-82
2023/04/23 11:34:36;;;;;;;0.20;0.20;;;11.60;99.90;;;;;;5074569;28;20064;-82
2023/04/23 11:37:03;;;;;;;0.10;0.10;;;11.60;99.90;;;;;;5081030;28;20077;-83
2023/04/23 11:39:29;;;;;;;0.10;0.10;;;11.70;99.90;;;;;;5081038;28;20028;-83
2023/04/23 11:41:56;;;;;;;0.10;0.10;;;11.50;99.90;;;;;;5079870;28;20036;-82
2023/04/23 11:44:22;;;;;;;0.00;0.00;;;11.50;99.90;;;;;;5078561;28;20111;-82
2023/04/23 11:46:49;;;;;;;0.68;0.68;;;11.60;99.90;;;;;;5081591;28;20110;-85
2023/04/23 11:49:18;;;;;;;0.38;0.38;;;11.40;99.90;;;;;;5074795;28;20024;-85
2023/04/23 11:51:45;;;;;;;1.27;0.52;;;11.30;99.90;;;;;;5072425;28;20031;-84
2023/04/23 11:54:12;;;;;;;0.00;0.00;;;11.30;99.90;;;;;;5074841;28;20048;-84
2023/04/23 11:56:38;;;;;;;0.03;0.03;;;11.30;99.90;;;;;;5074356;28;20108;-84
2023/04/23 11:59:05;;;;;;;0.00;0.00;;;11.30;99.90;;;;;;5075008;28;20057;-83
2023/04/23 12:01:41;;;;;;;0.00;0.00;;;11.30;99.90;;;;;;5081995;28;20081;-81
2023/04/23 12:04:17;;;;;;;0.28;0.28;;;11.40;99.90;;;;;;5081315;28;20110;-84
2023/04/23 12:06:45;;;;;;;0.10;0.10;;;11.60;99.90;;;;;;5087657;28;20130;-82
2023/04/23 12:09:13;;;;;;;0.10;0.10;;;11.70;99.90;;;;;;5081118;28;20023;-84
2023/04/23 12:11:42;;;;;;;0.30;0.30;;;11.80;99.90;;;;;;5082416;28;20034;-84
2023/04/23 12:14:09;;;;;;;0.10;0.10;;;11.90;99.90;;;;;;5068145;28;20021;-84
2023/04/23 12:16:39;;;;;;;0.60;0.57;;;12.10;99.90;;;;;;5065595;28;20666;-82
2023/04/23 12:19:09;;;;;;;0.57;0.22;;;12.20;99.90;;;;;;5080313;28;20027;-84
2023/04/23 12:21:49;;;;;;;0.00;0.00;;;12.30;99.90;;;;;;5079520;28;20047;-84
2023/04/23 12:24:15;;;;;;;0.20;0.20;;;12.20;99.90;;;;;;5082722;28;20097;-83
2023/04/23 12:26:44;;;;;;;0.10;0.10;;;12.20;99.90;;;;;;5082749;28;20816;-84
2023/04/23 12:29:12;;;;;;;0.10;0.10;;;12.00;99.90;;;;;;5081537;28;20031;-84
2023/04/23 12:31:38;;;;;;;0.13;0.13;;;12.20;99.90;;;;;;5068911;28;20029;-84
2023/04/23 12:34:06;;;;;;;0.00;0.00;;;12.30;99.90;;;;;;5073779;28;20055;-85
2023/04/23 12:36:38;;;;;;;0.98;0.90;;;12.50;99.90;;;;;;5079779;28;20050;-83
2023/04/23 12:39:35;;;;;;;0.05;0.05;;;12.50;99.90;;;;;;5068845;28;20098;-83
2023/04/23 12:42:09;;;;;;;0.00;0.00;;;12.70;99.90;;;;;;5079686;28;20053;-84
2023/04/23 12:44:37;;;;;;;0.00;0.00;;;12.80;99.90;;;;;;5074962;28;20047;-81
2023/04/23 12:47:07;;;;;;;0.20;0.20;;;13.00;99.90;;;;;;5079336;28;20036;-82
2023/04/23 12:49:34;;;;;;;0.20;0.20;;;13.20;99.90;;;;;;5073885;28;20020;-80
2023/04/23 12:52:01;;;;;;;;;;;13.30;99.90;;;;;;5077842;28;20028;-84
2023/04/23 12:54:30;;;;;;;0.08;0.08;;;13.50;99.90;;;;;;5080694;28;19965;-84
2023/04/23 12:56:56;;;;;;;0.63;0.50;;;13.10;99.90;;;;;;5085753;28;20137;-83
2023/04/23 12:59:22;;;;;;;0.00;0.00;;;13.10;99.90;;;;;;5085957;28;20526;-84
2023/04/23 13:01:50;;;;;;;0.00;0.00;;;13.20;99.90;;;;;;5080185;28;20032;-85
2023/04/23 13:04:16;;;;;;;0.25;0.25;;;13.50;99.90;;;;;;5068281;28;20032;-87
2023/04/23 13:06:42;;;;;;;0.00;0.00;;;13.40;99.90;;;;;;5076086;28;20059;-87
2023/04/23 13:09:09;;;;;;;0.20;0.20;;;13.20;99.90;;;;;;5078155;28;20020;-88
2023/04/23 13:11:35;;;;;;;;;;;12.90;99.90;;;;;;5086203;28;20036;-82
2023/04/23 13:14:00;;;;;;;0.10;0.10;;;12.80;99.90;;;;;;5077961;28;20011;-83
2023/04/23 13:16:26;;;;;;;0.05;0.05;;;13.30;99.90;;;;;;5078853;28;20036;-84
2023/04/23 13:18:52;;;;;;;2.33;1.00;;;13.90;99.90;;;;;;5078133;28;20048;-84
2023/04/23 13:21:18;;;;;;;0.00;0.00;;;14.30;99.90;;;;;;5081916;28;20032;-85